sensor_id;sensor_type;location;lat;lon;timestamp;pressure;altitude;pressure_sealevel;temperature
71205;BMP180;58935;54.498;18.544;2023-10-19T00:00:33;100223.60;;;9.18
71205;BMP180;58935;54.498;18.544;2023-10-19T00:02:59;100220.00;;;9.10
71205;BMP180;58935;54.498;18.544;2023-10-19T00:05:29;100222.80;;;9.10
71205;BMP180;58935;54.498;18.544;2023-10-19T00:07:56;100220.60;;;9.10
71205;BMP180;58935;54.498;18.544;2023-10-19T00:10:24;100217.60;;;9.10
71205;BMP180;58935;54.498;18.544;2023-10-19T00:12:51;100213.20;;;9.10
71205;BMP180;58935;54.498;18.544;2023-10-19T00:15:25;100214.40;;;9.10
71205;BMP180;58935;54.498;18.544;2023-10-19T00:17:53;100220.40;;;9.10
71205;BMP180;58935;54.498;18.544;2023-10-19T00:20:19;100214.20;;;9.10
71205;BMP180;58935;54.498;18.544;2023-10-19T00:22:47;100207.80;;;9.10
71205;BMP180;58935;54.498;18.544;2023-10-19T00:25:13;100208.00;;;9.10
71205;BMP180;58935;54.498;18.544;2023-10-19T00:27:39;100208.20;;;9.10
71205;BMP180;58935;54.498;18.544;2023-10-19T00:30:05;100203.20;;;9.10
71205;BMP180;58935;54.498;18.544;2023-10-19T00:32:32;100203.40;;;9.10
71205;BMP180;58935;54.498;18.544;2023-10-19T00:34:57;100204.60;;;9.10
71205;BMP180;58935;54.498;18.544;2023-10-19T00:37:29;100204.80;;;9.10
71205;BMP180;58935;54.498;18.544;2023-10-19T00:39:57;100202.80;;;9.10
71205;BMP180;58935;54.498;18.544;2023-10-19T00:42:39;100197.00;;;9.10
71205;BMP180;58935;54.498;18.544;2023-10-19T00:45:11;100196.40;;;9.10
71205;BMP180;58935;54.498;18.544;2023-10-19T00:47:38;100190.60;;;9.10
71205;BMP180;58935;54.498;18.544;2023-10-19T00:50:06;100188.00;;;9.10
71205;BMP180;58935;54.498;18.544;2023-10-19T00:52:42;100186.20;;;9.10
71205;BMP180;58935;54.498;18.544;2023-10-19T00:55:15;100182.60;;;9.12
71205;BMP180;58935;54.498;18.544;2023-10-19T00:57:42;100184.80;;;9.16
71205;BMP180;58935;54.498;18.544;2023-10-19T01:00:12;100181.00;;;9.20
71205;BMP180;58935;54.498;18.544;2023-10-19T01:02:38;100180.00;;;9.20
71205;BMP180;58935;54.498;18.544;2023-10-19T01:05:07;100171.00;;;9.20
71205;BMP180;58935;54.498;18.544;2023-10-19T01:07:33;100169.20;;;9.20
71205;BMP180;58935;54.498;18.544;2023-10-19T01:10:04;100172.20;;;9.20
71205;BMP180;58935;54.498;18.544;2023-10-19T01:12:31;100166.40;;;9.20
71205;BMP180;58935;54.498;18.544;2023-10-19T01:15:03;100162.20;;;9.20
71205;BMP180;58935;54.498;18.544;2023-10-19T01:17:32;100163.60;;;9.20
71205;BMP180;58935;54.498;18.544;2023-10-19T01:20:04;100153.20;;;9.20
71205;BMP180;58935;54.498;18.544;2023-10-19T01:22:46;100151.60;;;9.20
71205;BMP180;58935;54.498;18.544;2023-10-19T01:25:11;100155.40;;;9.20
71205;BMP180;58935;54.498;18.544;2023-10-19T01:27:38;100148.00;;;9.20
71205;BMP180;58935;54.498;18.544;2023-10-19T01:30:06;100147.00;;;9.10
71205;BMP180;58935;54.498;18.544;2023-10-19T01:32:34;100143.80;;;9.10
71205;BMP180;58935;54.498;18.544;2023-10-19T01:34:59;100132.60;;;9.00
71205;BMP180;58935;54.498;18.544;2023-10-19T01:37:25;100128.00;;;9.00
71205;BMP180;58935;54.498;18.544;2023-10-19T01:39:50;100122.80;;;8.92
71205;BMP180;58935;54.498;18.544;2023-10-19T01:42:16;100117.60;;;8.90
71205;BMP180;58935;54.498;18.544;2023-10-19T01:44:42;100113.40;;;8.90
71205;BMP180;58935;54.498;18.544;2023-10-19T01:47:07;100108.80;;;8.90
71205;BMP180;58935;54.498;18.544;2023-10-19T01:49:33;100104.80;;;8.90
71205;BMP180;58935;54.498;18.544;2023-10-19T01:51:58;100105.20;;;8.90
71205;BMP180;58935;54.498;18.544;2023-10-19T01:54:24;100099.80;;;8.90
71205;BMP180;58935;54.498;18.544;2023-10-19T01:56:52;100100.20;;;8.90
71205;BMP180;58935;54.498;18.544;2023-10-19T01:59:22;100101.20;;;8.90
71205;BMP180;58935;54.498;18.544;2023-10-19T02:01:47;100098.60;;;9.00
71205;BMP180;58935;54.498;18.544;2023-10-19T02:04:14;100098.40;;;9.00
71205;BMP180;58935;54.498;18.544;2023-10-19T02:06:40;100091.60;;;9.00
71205;BMP180;58935;54.498;18.544;2023-10-19T02:09:09;100092.00;;;9.06
71205;BMP180;58935;54.498;18.544;2023-10-19T02:11:35;100089.20;;;9.10
71205;BMP180;58935;54.498;18.544;2023-10-19T02:14:03;100083.80;;;9.10
71205;BMP180;58935;54.498;18.544;2023-10-19T02:16:37;100085.40;;;9.10
71205;BMP180;58935;54.498;18.544;2023-10-19T02:19:03;100072.40;;;9.10
71205;BMP180;58935;54.498;18.544;2023-10-19T02:21:28;100069.80;;;9.10
71205;BMP180;58935;54.498;18.544;2023-10-19T02:23:56;100065.00;;;9.10
71205;BMP180;58935;54.498;18.544;2023-10-19T02:26:23;100059.60;;;9.00
71205;BMP180;58935;54.498;18.544;2023-10-19T02:28:51;100060.80;;;9.00
71205;BMP180;58935;54.498;18.544;2023-10-19T02:31:17;100064.40;;;9.00
71205;BMP180;58935;54.498;18.544;2023-10-19T02:33:45;100062.40;;;8.96
71205;BMP180;58935;54.498;18.544;2023-10-19T02:36:13;100053.80;;;8.90
71205;BMP180;58935;54.498;18.544;2023-10-19T02:38:39;100053.20;;;8.88
71205;BMP180;58935;54.498;18.544;2023-10-19T02:41:05;100055.60;;;8.80
71205;BMP180;58935;54.498;18.544;2023-10-19T02:43:31;100052.20;;;8.80
71205;BMP180;58935;54.498;18.544;2023-10-19T02:45:59;100043.20;;;8.76
71205;BMP180;58935;54.498;18.544;2023-10-19T02:48:24;100040.20;;;8.70
71205;BMP180;58935;54.498;18.544;2023-10-19T02:50:50;100041.40;;;8.70
71205;BMP180;58935;54.498;18.544;2023-10-19T02:53:15;100040.00;;;8.70
71205;BMP180;58935;54.498;18.544;2023-10-19T02:55:44;100042.00;;;8.64
71205;BMP180;58935;54.498;18.544;2023-10-19T02:58:09;100040.00;;;8.60
71205;BMP180;58935;54.498;18.544;2023-10-19T03:00:37;100032.20;;;8.60
71205;BMP180;58935;54.498;18.544;2023-10-19T03:03:02;100028.40;;;8.60
71205;BMP180;58935;54.498;18.544;2023-10-19T03:05:30;100023.40;;;8.60
71205;BMP180;58935;54.498;18.544;2023-10-19T03:07:56;100022.80;;;8.60
71205;BMP180;58935;54.498;18.544;2023-10-19T03:10:21;100022.40;;;8.60
71205;BMP180;58935;54.498;18.544;2023-10-19T03:12:50;100019.40;;;8.60
71205;BMP180;58935;54.498;18.544;2023-10-19T03:15:17;100009.40;;;8.70
71205;BMP180;58935;54.498;18.544;2023-10-19T03:17:46;99999.20;;;8.70
71205;BMP180;58935;54.498;18.544;2023-10-19T03:20:11;100000.20;;;8.70
71205;BMP180;58935;54.498;18.544;2023-10-19T03:22:37;100001.20;;;8.70
71205;BMP180;58935;54.498;18.544;2023-10-19T03:25:06;99996.60;;;8.70
71205;BMP180;58935;54.498;18.544;2023-10-19T03:27:54;99998.40;;;8.70
71205;BMP180;58935;54.498;18.544;2023-10-19T03:30:20;99996.40;;;8.70
71205;BMP180;58935;54.498;18.544;2023-10-19T03:32:47;99988.00;;;8.78
71205;BMP180;58935;54.498;18.544;2023-10-19T03:35:13;99983.40;;;8.78
71205;BMP180;58935;54.498;18.544;2023-10-19T03:37:40;99981.00;;;8.80
71205;BMP180;58935;54.498;18.544;2023-10-19T03:40:07;99979.20;;;8.80
71205;BMP180;58935;54.498;18.544;2023-10-19T03:42:40;99968.80;;;8.70
71205;BMP180;58935;54.498;18.544;2023-10-19T03:45:07;99967.80;;;8.70
71205;BMP180;58935;54.498;18.544;2023-10-19T03:47:39;99964.60;;;8.60
71205;BMP180;58935;54.498;18.544;2023-10-19T03:50:05;99965.20;;;8.50
71205;BMP180;58935;54.498;18.544;2023-10-19T03:52:35;99963.40;;;8.40
71205;BMP180;58935;54.498;18.544;2023-10-19T03:55:03;99971.60;;;8.34
71205;BMP180;58935;54.498;18.544;2023-10-19T03:57:36;99969.40;;;8.30
71205;BMP180;58935;54.498;18.544;2023-10-19T04:00:06;99969.00;;;8.20
71205;BMP180;58935;54.498;18.544;2023-10-19T04:02:36;99970.40;;;8.20
71205;BMP180;58935;54.498;18.544;2023-10-19T04:05:04;99966.80;;;8.20
71205;BMP180;58935;54.498;18.544;2023-10-19T04:07:29;99965.80;;;8.16
71205;BMP180;58935;54.498;18.544;2023-10-19T04:09:57;99967.00;;;8.10
71205;BMP180;58935;54.498;18.544;2023-10-19T04:12:26;99967.20;;;8.10
71205;BMP180;58935;54.498;18.544;2023-10-19T04:14:54;99966.80;;;8.20
71205;BMP180;58935;54.498;18.544;2023-10-19T04:17:19;99965.20;;;8.20
71205;BMP180;58935;54.498;18.544;2023-10-19T04:19:47;99961.40;;;8.30
71205;BMP180;58935;54.498;18.544;2023-10-19T04:22:22;99966.60;;;8.36
71205;BMP180;58935;54.498;18.544;2023-10-19T04:24:49;99955.60;;;8.40
71205;BMP180;58935;54.498;18.544;2023-10-19T04:27:14;99957.60;;;8.40
71205;BMP180;58935;54.498;18.544;2023-10-19T04:29:40;99959.40;;;8.40
71205;BMP180;58935;54.498;18.544;2023-10-19T04:32:09;99959.40;;;8.40
71205;BMP180;58935;54.498;18.544;2023-10-19T04:34:35;99962.00;;;8.40
71205;BMP180;58935;54.498;18.544;2023-10-19T04:37:01;99966.00;;;8.40
71205;BMP180;58935;54.498;18.544;2023-10-19T04:39:28;99971.00;;;8.40
71205;BMP180;58935;54.498;18.544;2023-10-19T04:41:55;99969.20;;;8.32
71205;BMP180;58935;54.498;18.544;2023-10-19T04:44:21;99972.00;;;8.30
71205;BMP180;58935;54.498;18.544;2023-10-19T04:46:46;99975.60;;;8.22
71205;BMP180;58935;54.498;18.544;2023-10-19T04:49:11;99971.20;;;8.20
71205;BMP180;58935;54.498;18.544;2023-10-19T04:51:36;99966.80;;;8.20
71205;BMP180;58935;54.498;18.544;2023-10-19T04:54:05;99961.60;;;8.10
71205;BMP180;58935;54.498;18.544;2023-10-19T04:56:31;99957.20;;;8.00
71205;BMP180;58935;54.498;18.544;2023-10-19T04:58:57;99963.20;;;7.90
71205;BMP180;58935;54.498;18.544;2023-10-19T05:01:22;99964.20;;;7.80
71205;BMP180;58935;54.498;18.544;2023-10-19T05:03:47;99952.00;;;7.70
71205;BMP180;58935;54.498;18.544;2023-10-19T05:06:13;99952.60;;;7.60
71205;BMP180;58935;54.498;18.544;2023-10-19T05:08:39;99951.80;;;7.60
71205;BMP180;58935;54.498;18.544;2023-10-19T05:11:04;99956.80;;;7.60
71205;BMP180;58935;54.498;18.544;2023-10-19T05:13:31;99958.00;;;7.60
71205;BMP180;58935;54.498;18.544;2023-10-19T05:15:56;99955.20;;;7.58
71205;BMP180;58935;54.498;18.544;2023-10-19T05:18:25;99952.40;;;7.50
71205;BMP180;58935;54.498;18.544;2023-10-19T05:20:52;99949.00;;;7.50
71205;BMP180;58935;54.498;18.544;2023-10-19T05:23:22;99949.20;;;7.50
71205;BMP180;58935;54.498;18.544;2023-10-19T05:25:49;99946.40;;;7.50
71205;BMP180;58935;54.498;18.544;2023-10-19T05:28:15;99947.00;;;7.50
71205;BMP180;58935;54.498;18.544;2023-10-19T05:30:40;99947.80;;;7.50
71205;BMP180;58935;54.498;18.544;2023-10-19T05:33:05;99949.60;;;7.50
71205;BMP180;58935;54.498;18.544;2023-10-19T05:35:31;99944.60;;;7.50
71205;BMP180;58935;54.498;18.544;2023-10-19T05:38:00;99944.60;;;7.50
71205;BMP180;58935;54.498;18.544;2023-10-19T05:40:26;99943.20;;;7.48
71205;BMP180;58935;54.498;18.544;2023-10-19T05:42:56;99943.80;;;7.44
71205;BMP180;58935;54.498;18.544;2023-10-19T05:45:22;99940.80;;;7.40
71205;BMP180;58935;54.498;18.544;2023-10-19T05:47:47;99950.40;;;7.44
71205;BMP180;58935;54.498;18.544;2023-10-19T05:50:12;99944.80;;;7.50
71205;BMP180;58935;54.498;18.544;2023-10-19T05:52:42;99944.60;;;7.44
71205;BMP180;58935;54.498;18.544;2023-10-19T05:55:08;99945.20;;;7.48
71205;BMP180;58935;54.498;18.544;2023-10-19T05:57:34;99943.00;;;7.40
71205;BMP180;58935;54.498;18.544;2023-10-19T06:00:00;99950.80;;;7.40
71205;BMP180;58935;54.498;18.544;2023-10-19T06:02:26;99944.20;;;7.40
71205;BMP180;58935;54.498;18.544;2023-10-19T06:04:51;99948.00;;;7.40
71205;BMP180;58935;54.498;18.544;2023-10-19T06:07:16;99942.60;;;7.30
71205;BMP180;58935;54.498;18.544;2023-10-19T06:09:42;99947.20;;;7.30
71205;BMP180;58935;54.498;18.544;2023-10-19T06:12:07;99952.60;;;7.30
71205;BMP180;58935;54.498;18.544;2023-10-19T06:14:34;99950.00;;;7.30
71205;BMP180;58935;54.498;18.544;2023-10-19T06:17:00;99945.80;;;7.30
71205;BMP180;58935;54.498;18.544;2023-10-19T06:19:26;99949.60;;;7.30
71205;BMP180;58935;54.498;18.544;2023-10-19T06:21:51;99944.20;;;7.20
71205;BMP180;58935;54.498;18.544;2023-10-19T06:24:17;99943.20;;;7.20
71205;BMP180;58935;54.498;18.544;2023-10-19T06:26:44;99942.20;;;7.20
71205;BMP180;58935;54.498;18.544;2023-10-19T06:29:10;99948.00;;;7.20
71205;BMP180;58935;54.498;18.544;2023-10-19T06:31:36;99950.80;;;7.20
71205;BMP180;58935;54.498;18.544;2023-10-19T06:34:02;99949.20;;;7.20
71205;BMP180;58935;54.498;18.544;2023-10-19T06:36:28;99958.80;;;7.20
71205;BMP180;58935;54.498;18.544;2023-10-19T06:38:55;99961.00;;;7.26
71205;BMP180;58935;54.498;18.544;2023-10-19T06:41:20;99957.20;;;7.30
71205;BMP180;58935;54.498;18.544;2023-10-19T06:43:46;99960.60;;;7.30
71205;BMP180;58935;54.498;18.544;2023-10-19T06:46:11;99959.20;;;7.30
71205;BMP180;58935;54.498;18.544;2023-10-19T06:48:37;99958.40;;;7.30
71205;BMP180;58935;54.498;18.544;2023-10-19T06:51:02;99952.40;;;7.32
71205;BMP180;58935;54.498;18.544;2023-10-19T06:53:28;99947.60;;;7.36
71205;BMP180;58935;54.498;18.544;2023-10-19T06:55:53;99951.00;;;7.40
71205;BMP180;58935;54.498;18.544;2023-10-19T06:58:20;99946.20;;;7.40
71205;BMP180;58935;54.498;18.544;2023-10-19T07:00:46;99943.20;;;7.40
71205;BMP180;58935;54.498;18.544;2023-10-19T07:03:21;99941.80;;;7.40
71205;BMP180;58935;54.498;18.544;2023-10-19T07:05:46;99934.80;;;7.40
71205;BMP180;58935;54.498;18.544;2023-10-19T07:08:12;99936.40;;;7.50
71205;BMP180;58935;54.498;18.544;2023-10-19T07:10:37;99939.00;;;7.50
71205;BMP180;58935;54.498;18.544;2023-10-19T07:13:02;99944.20;;;7.50
71205;BMP180;58935;54.498;18.544;2023-10-19T07:15:28;99944.80;;;7.52
71205;BMP180;58935;54.498;18.544;2023-10-19T07:17:54;99941.20;;;7.60
71205;BMP180;58935;54.498;18.544;2023-10-19T07:20:20;99939.40;;;7.60
71205;BMP180;58935;54.498;18.544;2023-10-19T07:22:52;99946.40;;;7.60
71205;BMP180;58935;54.498;18.544;2023-10-19T07:25:17;99945.00;;;7.60
71205;BMP180;58935;54.498;18.544;2023-10-19T07:27:47;99937.40;;;7.60
71205;BMP180;58935;54.498;18.544;2023-10-19T07:30:12;99939.00;;;7.60
71205;BMP180;58935;54.498;18.544;2023-10-19T07:32:40;99940.40;;;7.64
71205;BMP180;58935;54.498;18.544;2023-10-19T07:35:06;99938.20;;;7.66
71205;BMP180;58935;54.498;18.544;2023-10-19T07:37:31;99945.00;;;7.68
71205;BMP180;58935;54.498;18.544;2023-10-19T07:39:56;99941.60;;;7.68
71205;BMP180;58935;54.498;18.544;2023-10-19T07:42:23;99940.60;;;7.70
71205;BMP180;58935;54.498;18.544;2023-10-19T07:44:48;99942.00;;;7.70
71205;BMP180;58935;54.498;18.544;2023-10-19T07:47:14;99939.00;;;7.70
71205;BMP180;58935;54.498;18.544;2023-10-19T07:49:40;99937.00;;;7.70
71205;BMP180;58935;54.498;18.544;2023-10-19T07:52:06;99933.20;;;7.70
71205;BMP180;58935;54.498;18.544;2023-10-19T07:54:34;99930.60;;;7.70
71205;BMP180;58935;54.498;18.544;2023-10-19T07:57:00;99933.00;;;7.70
71205;BMP180;58935;54.498;18.544;2023-10-19T07:59:29;99931.40;;;7.74
71205;BMP180;58935;54.498;18.544;2023-10-19T08:01:54;99929.00;;;7.80
71205;BMP180;58935;54.498;18.544;2023-10-19T08:04:19;99923.20;;;7.80
71205;BMP180;58935;54.498;18.544;2023-10-19T08:06:44;99919.40;;;7.80
71205;BMP180;58935;54.498;18.544;2023-10-19T08:09:09;99919.80;;;7.80
71205;BMP180;58935;54.498;18.544;2023-10-19T08:11:36;99915.60;;;7.82
71205;BMP180;58935;54.498;18.544;2023-10-19T08:14:02;99920.40;;;7.82
71205;BMP180;58935;54.498;18.544;2023-10-19T08:16:30;99915.60;;;7.80
71205;BMP180;58935;54.498;18.544;2023-10-19T08:18:57;99907.60;;;7.80
71205;BMP180;58935;54.498;18.544;2023-10-19T08:21:23;99907.00;;;7.80
71205;BMP180;58935;54.498;18.544;2023-10-19T08:23:48;99906.80;;;7.84
71205;BMP180;58935;54.498;18.544;2023-10-19T08:26:13;99906.60;;;7.90
71205;BMP180;58935;54.498;18.544;2023-10-19T08:28:40;99907.00;;;7.90
71205;BMP180;58935;54.498;18.544;2023-10-19T08:31:08;99905.40;;;7.90
71205;BMP180;58935;54.498;18.544;2023-10-19T08:33:36;99911.00;;;7.90
71205;BMP180;58935;54.498;18.544;2023-10-19T08:36:04;99905.60;;;8.00
71205;BMP180;58935;54.498;18.544;2023-10-19T08:38:30;99905.80;;;8.00
71205;BMP180;58935;54.498;18.544;2023-10-19T08:40:55;99905.40;;;8.00
71205;BMP180;58935;54.498;18.544;2023-10-19T08:43:20;99905.40;;;8.00
71205;BMP180;58935;54.498;18.544;2023-10-19T08:45:46;99902.60;;;8.02
71205;BMP180;58935;54.498;18.544;2023-10-19T08:48:12;99900.80;;;8.00
71205;BMP180;58935;54.498;18.544;2023-10-19T08:50:39;99893.60;;;8.00
71205;BMP180;58935;54.498;18.544;2023-10-19T08:53:06;99894.00;;;8.10
71205;BMP180;58935;54.498;18.544;2023-10-19T08:55:33;99893.00;;;8.10
71205;BMP180;58935;54.498;18.544;2023-10-19T08:58:00;99887.60;;;8.10
71205;BMP180;58935;54.498;18.544;2023-10-19T09:00:26;99889.40;;;8.10
71205;BMP180;58935;54.498;18.544;2023-10-19T09:02:52;99890.80;;;8.10
71205;BMP180;58935;54.498;18.544;2023-10-19T09:05:19;99887.40;;;8.00
71205;BMP180;58935;54.498;18.544;2023-10-19T09:07:48;99889.00;;;8.00
71205;BMP180;58935;54.498;18.544;2023-10-19T09:10:22;99886.20;;;7.96
71205;BMP180;58935;54.498;18.544;2023-10-19T09:15:21;99882.00;;;7.92
71205;BMP180;58935;54.498;18.544;2023-10-19T09:17:48;99882.80;;;7.92
71205;BMP180;58935;54.498;18.544;2023-10-19T09:20:14;99882.40;;;7.90
71205;BMP180;58935;54.498;18.544;2023-10-19T09:22:44;99878.40;;;7.90
71205;BMP180;58935;54.498;18.544;2023-10-19T09:25:09;99879.80;;;7.90
71205;BMP180;58935;54.498;18.544;2023-10-19T09:27:34;99877.80;;;7.80
71205;BMP180;58935;54.498;18.544;2023-10-19T09:30:00;99880.00;;;7.82
71205;BMP180;58935;54.498;18.544;2023-10-19T09:32:28;99873.80;;;7.80
71205;BMP180;58935;54.498;18.544;2023-10-19T09:34:55;99874.40;;;7.80
71205;BMP180;58935;54.498;18.544;2023-10-19T09:37:20;99872.80;;;7.80
71205;BMP180;58935;54.498;18.544;2023-10-19T09:39:46;99874.60;;;7.80
71205;BMP180;58935;54.498;18.544;2023-10-19T09:42:14;99871.20;;;7.80
71205;BMP180;58935;54.498;18.544;2023-10-19T09:44:44;99864.00;;;7.76
71205;BMP180;58935;54.498;18.544;2023-10-19T09:47:12;99864.00;;;7.80
71205;BMP180;58935;54.498;18.544;2023-10-19T09:49:40;99863.40;;;7.70
71205;BMP180;58935;54.498;18.544;2023-10-19T09:52:07;99860.40;;;7.70
71205;BMP180;58935;54.498;18.544;2023-10-19T09:54:45;99860.40;;;7.70
71205;BMP180;58935;54.498;18.544;2023-10-19T09:57:18;99859.00;;;7.70
71205;BMP180;58935;54.498;18.544;2023-10-19T09:59:47;99858.80;;;7.70
71205;BMP180;58935;54.498;18.544;2023-10-19T10:02:15;99852.40;;;7.70
71205;BMP180;58935;54.498;18.544;2023-10-19T10:04:43;99849.80;;;7.70
71205;BMP180;58935;54.498;18.544;2023-10-19T10:07:11;99845.60;;;7.68
71205;BMP180;58935;54.498;18.544;2023-10-19T10:09:39;99837.80;;;7.60
71205;BMP180;58935;54.498;18.544;2023-10-19T10:14:37;99839.00;;;7.60
71205;BMP180;58935;54.498;18.544;2023-10-19T10:17:03;99830.00;;;7.60
71205;BMP180;58935;54.498;18.544;2023-10-19T10:19:30;99839.40;;;7.60
71205;BMP180;58935;54.498;18.544;2023-10-19T10:22:03;99831.40;;;7.60
71205;BMP180;58935;54.498;18.544;2023-10-19T10:24:31;99830.60;;;7.70
71205;BMP180;58935;54.498;18.544;2023-10-19T10:26:57;99826.40;;;7.70
71205;BMP180;58935;54.498;18.544;2023-10-19T10:29:23;99822.80;;;7.70
71205;BMP180;58935;54.498;18.544;2023-10-19T10:31:50;99821.80;;;7.70
71205;BMP180;58935;54.498;18.544;2023-10-19T10:39:19;99809.20;;;7.70
71205;BMP180;58935;54.498;18.544;2023-10-19T10:41:44;99804.00;;;7.70
71205;BMP180;58935;54.498;18.544;2023-10-19T10:44:11;99801.80;;;7.70
71205;BMP180;58935;54.498;18.544;2023-10-19T10:46:39;99799.20;;;7.76
71205;BMP180;58935;54.498;18.544;2023-10-19T10:49:08;99788.60;;;7.80
71205;BMP180;58935;54.498;18.544;2023-10-19T10:51:34;99788.40;;;7.80
71205;BMP180;58935;54.498;18.544;2023-10-19T10:54:00;99789.40;;;7.78
71205;BMP180;58935;54.498;18.544;2023-10-19T10:56:25;99792.40;;;7.76
71205;BMP180;58935;54.498;18.544;2023-10-19T10:58:51;99788.00;;;7.80
71205;BMP180;58935;54.498;18.544;2023-10-19T11:03:47;99783.80;;;7.80
71205;BMP180;58935;54.498;18.544;2023-10-19T11:06:13;99775.60;;;7.80
71205;BMP180;58935;54.498;18.544;2023-10-19T11:08:38;99779.40;;;7.90
71205;BMP180;58935;54.498;18.544;2023-10-19T11:11:06;99765.40;;;7.90
71205;BMP180;58935;54.498;18.544;2023-10-19T11:13:32;99765.60;;;7.90
71205;BMP180;58935;54.498;18.544;2023-10-19T11:16:00;99770.40;;;7.90
71205;BMP180;58935;54.498;18.544;2023-10-19T11:20:58;99760.40;;;7.90
71205;BMP180;58935;54.498;18.544;2023-10-19T11:25:58;99745.40;;;8.00
71205;BMP180;58935;54.498;18.544;2023-10-19T11:28:23;99748.60;;;8.00
71205;BMP180;58935;54.498;18.544;2023-10-19T11:30:53;99739.80;;;8.00
71205;BMP180;58935;54.498;18.544;2023-10-19T11:33:18;99737.20;;;8.00
71205;BMP180;58935;54.498;18.544;2023-10-19T11:35:49;99742.40;;;8.00
71205;BMP180;58935;54.498;18.544;2023-10-19T11:38:14;99737.40;;;8.00
71205;BMP180;58935;54.498;18.544;2023-10-19T11:40:39;99736.60;;;8.10
71205;BMP180;58935;54.498;18.544;2023-10-19T11:43:05;99731.40;;;8.10
71205;BMP180;58935;54.498;18.544;2023-10-19T11:48:52;99729.80;;;8.10
71205;BMP180;58935;54.498;18.544;2023-10-19T11:51:17;99726.20;;;8.10
71205;BMP180;58935;54.498;18.544;2023-10-19T11:53:43;99725.60;;;8.10
71205;BMP180;58935;54.498;18.544;2023-10-19T11:58:41;99723.40;;;8.10
71205;BMP180;58935;54.498;18.544;2023-10-19T12:01:10;99720.00;;;8.10
71205;BMP180;58935;54.498;18.544;2023-10-19T12:03:38;99720.80;;;8.12
71205;BMP180;58935;54.498;18.544;2023-10-19T12:06:06;99723.20;;;8.20
71205;BMP180;58935;54.498;18.544;2023-10-19T12:08:33;99718.00;;;8.20
71205;BMP180;58935;54.498;18.544;2023-10-19T12:10:59;99718.00;;;8.20
71205;BMP180;58935;54.498;18.544;2023-10-19T12:13:27;99718.40;;;8.20
71205;BMP180;58935;54.498;18.544;2023-10-19T12:15:54;99721.20;;;8.20
71205;BMP180;58935;54.498;18.544;2023-10-19T12:18:21;99718.00;;;8.20
71205;BMP180;58935;54.498;18.544;2023-10-19T12:20:47;99723.80;;;8.10
71205;BMP180;58935;54.498;18.544;2023-10-19T12:23:14;99721.60;;;8.10
71205;BMP180;58935;54.498;18.544;2023-10-19T12:25:39;99720.00;;;8.10
71205;BMP180;58935;54.498;18.544;2023-10-19T12:28:07;99713.80;;;8.10
71205;BMP180;58935;54.498;18.544;2023-10-19T12:30:33;99712.40;;;8.10
71205;BMP180;58935;54.498;18.544;2023-10-19T12:33:02;99707.00;;;8.10
71205;BMP180;58935;54.498;18.544;2023-10-19T12:35:33;99703.00;;;8.00
71205;BMP180;58935;54.498;18.544;2023-10-19T12:38:01;99700.00;;;8.00
71205;BMP180;58935;54.498;18.544;2023-10-19T12:40:32;99701.00;;;7.90
71205;BMP180;58935;54.498;18.544;2023-10-19T12:43:00;99703.20;;;7.92
71205;BMP180;58935;54.498;18.544;2023-10-19T12:45:28;99699.80;;;7.90
71205;BMP180;58935;54.498;18.544;2023-10-19T12:47:54;99697.00;;;7.90
71205;BMP180;58935;54.498;18.544;2023-10-19T12:50:21;99691.80;;;7.90
71205;BMP180;58935;54.498;18.544;2023-10-19T12:52:49;99685.60;;;7.90
71205;BMP180;58935;54.498;18.544;2023-10-19T12:55:16;99678.20;;;7.90
71205;BMP180;58935;54.498;18.544;2023-10-19T12:57:41;99677.20;;;7.90
71205;BMP180;58935;54.498;18.544;2023-10-19T13:00:08;99675.40;;;7.90
71205;BMP180;58935;54.498;18.544;2023-10-19T13:02:36;99675.00;;;7.90
71205;BMP180;58935;54.498;18.544;2023-10-19T13:05:02;99678.00;;;7.90
71205;BMP180;58935;54.498;18.544;2023-10-19T13:07:28;99676.80;;;7.90
71205;BMP180;58935;54.498;18.544;2023-10-19T13:09:53;99672.20;;;7.86
71205;BMP180;58935;54.498;18.544;2023-10-19T13:12:20;99665.80;;;7.82
71205;BMP180;58935;54.498;18.544;2023-10-19T13:14:48;99678.40;;;7.80
71205;BMP180;58935;54.498;18.544;2023-10-19T13:17:14;99673.60;;;7.74
71205;BMP180;58935;54.498;18.544;2023-10-19T13:19:39;99669.40;;;7.70
71205;BMP180;58935;54.498;18.544;2023-10-19T13:22:05;99661.60;;;7.70
71205;BMP180;58935;54.498;18.544;2023-10-19T13:24:33;99661.20;;;7.66
71205;BMP180;58935;54.498;18.544;2023-10-19T13:27:06;99659.60;;;7.60
71205;BMP180;58935;54.498;18.544;2023-10-19T13:29:31;99667.40;;;7.60
71205;BMP180;58935;54.498;18.544;2023-10-19T13:32:02;99663.00;;;7.60
71205;BMP180;58935;54.498;18.544;2023-10-19T13:34:27;99662.80;;;7.52
71205;BMP180;58935;54.498;18.544;2023-10-19T13:36:53;99664.40;;;7.50
71205;BMP180;58935;54.498;18.544;2023-10-19T13:39:19;99654.80;;;7.50
71205;BMP180;58935;54.498;18.544;2023-10-19T13:41:44;99658.60;;;7.50
71205;BMP180;58935;54.498;18.544;2023-10-19T13:44:09;99658.60;;;7.50
71205;BMP180;58935;54.498;18.544;2023-10-19T13:46:36;99652.40;;;7.50
71205;BMP180;58935;54.498;18.544;2023-10-19T13:49:02;99650.80;;;7.50
71205;BMP180;58935;54.498;18.544;2023-10-19T13:51:30;99651.20;;;7.50
71205;BMP180;58935;54.498;18.544;2023-10-19T13:53:56;99647.40;;;7.42
71205;BMP180;58935;54.498;18.544;2023-10-19T13:56:22;99640.40;;;7.40
71205;BMP180;58935;54.498;18.544;2023-10-19T13:58:48;99636.60;;;7.40
71205;BMP180;58935;54.498;18.544;2023-10-19T14:01:14;99645.00;;;7.40
71205;BMP180;58935;54.498;18.544;2023-10-19T14:03:40;99639.60;;;7.40
71205;BMP180;58935;54.498;18.544;2023-10-19T14:06:11;99643.20;;;7.40
71205;BMP180;58935;54.498;18.544;2023-10-19T14:08:38;99640.00;;;7.48
71205;BMP180;58935;54.498;18.544;2023-10-19T14:11:03;99640.60;;;7.42
71205;BMP180;58935;54.498;18.544;2023-10-19T14:13:29;99640.80;;;7.46
71205;BMP180;58935;54.498;18.544;2023-10-19T14:15:54;99635.80;;;7.44
71205;BMP180;58935;54.498;18.544;2023-10-19T14:18:20;99638.40;;;7.40
71205;BMP180;58935;54.498;18.544;2023-10-19T14:20:46;99625.00;;;7.40
71205;BMP180;58935;54.498;18.544;2023-10-19T14:23:12;99629.60;;;7.40
71205;BMP180;58935;54.498;18.544;2023-10-19T14:25:38;99626.00;;;7.30
71205;BMP180;58935;54.498;18.544;2023-10-19T14:28:05;99625.80;;;7.30